Highland Township, Michigan
Current Conditions -  °F | °C
As of 6:16 AM on Tuesday 21 Oct 2014 (Local Time) from KPTK Reporting Station
Drizzle Drizzle  
Wind Chill: 42°   Ceiling: 600
Heat Index: 46°   Visibility: 1.5mi
Dew Point: 44°   Wind: 8mph
Humidity: 93%   Direction: 320°NW
Pressure: 29.91"   Gusts: NA
Location:  42.6632°N, 83.6457°W
Report Text: KPTK 211016Z 32007KT 1 1/2SM -DZ BR OVC006 08/07 A2991 RMK AO2 CIG 004V010 P0000 T00780067
Loading
Personal Weather Stations






























Interactive Weather Map New forecast layout! Learn more

10-Day Weather Forecast

Advertisements
Track Severe Weather on mobile